createdAt,value
2023-05-06T00:00:26.266Z,17.38
2023-05-06T00:02:53.752Z,18.17
2023-05-06T00:05:21.091Z,18.38
2023-05-06T00:07:48.697Z,18.95
2023-05-06T00:10:16.454Z,16.70
2023-05-06T00:12:43.910Z,16.77
2023-05-06T00:15:11.944Z,17.45
2023-05-06T00:17:39.280Z,16.40
2023-05-06T00:20:07.390Z,16.08
2023-05-06T00:22:34.584Z,14.48
2023-05-06T00:25:01.964Z,14.65
2023-05-06T00:27:29.389Z,14.20
2023-05-06T00:29:58.059Z,13.85
2023-05-06T00:32:25.313Z,16.20
2023-05-06T00:34:52.354Z,14.70
2023-05-06T00:37:19.522Z,10.88
2023-05-06T00:39:46.539Z,13.05
2023-05-06T00:42:15.974Z,11.48
2023-05-06T00:44:43.134Z,10.52
2023-05-06T00:47:13.620Z,11.55
2023-05-06T00:49:41.028Z,9.07
2023-05-06T00:52:08.497Z,10.88
2023-05-06T00:54:36.162Z,9.82
2023-05-06T00:57:03.944Z,7.97
2023-05-06T00:59:31.568Z,8.73
2023-05-06T01:01:59.375Z,8.32
2023-05-06T01:04:27.029Z,9.45
2023-05-06T01:07:16.808Z,7.93
2023-05-06T01:09:56.321Z,7.72
2023-05-06T01:12:32.566Z,9.43
2023-05-06T01:15:08.783Z,9.55
2023-05-06T01:17:46.601Z,9.48
2023-05-06T01:20:15.481Z,8.98
2023-05-06T01:22:42.980Z,9.27
2023-05-06T01:25:22.120Z,10.10
2023-05-06T01:27:50.393Z,10.75
2023-05-06T01:30:19.773Z,9.00
2023-05-06T01:32:46.871Z,10.90
2023-05-06T01:35:26.358Z,11.88
2023-05-06T01:38:23.583Z,14.23
2023-05-06T01:40:55.229Z,9.95
2023-05-06T01:43:24.746Z,11.32
2023-05-06T01:45:54.403Z,10.95
2023-05-06T01:48:28.530Z,9.63
2023-05-06T01:50:55.931Z,13.55
2023-05-06T01:53:23.237Z,10.50
2023-05-06T01:55:50.811Z,12.70
2023-05-06T01:58:18.036Z,13.43
2023-05-06T02:00:45.497Z,11.15
2023-05-06T02:03:13.164Z,12.65
2023-05-06T02:05:40.355Z,13.52
2023-05-06T02:08:07.490Z,11.98
2023-05-06T02:10:34.515Z,12.77
2023-05-06T02:13:01.719Z,16.17
2023-05-06T02:15:30.103Z,13.05
2023-05-06T02:17:57.462Z,11.73
2023-05-06T02:20:24.623Z,12.90
2023-05-06T02:22:51.761Z,12.27
2023-05-06T02:25:19.027Z,12.15
2023-05-06T02:27:46.045Z,10.80
2023-05-06T02:30:13.365Z,10.70
2023-05-06T02:32:41.681Z,11.82
2023-05-06T02:35:09.837Z,13.18
2023-05-06T02:37:37.157Z,12.75
2023-05-06T02:40:06.580Z,11.48
2023-05-06T02:42:35.992Z,11.98
2023-05-06T02:45:03.162Z,12.07
2023-05-06T02:47:30.307Z,12.82
2023-05-06T02:49:57.476Z,12.02
2023-05-06T02:52:24.596Z,14.20
2023-05-06T02:54:51.940Z,11.55
2023-05-06T02:57:19.197Z,11.07
2023-05-06T02:59:46.261Z,12.05
2023-05-06T03:02:13.386Z,11.68
2023-05-06T03:04:40.564Z,12.95
2023-05-06T03:07:07.726Z,12.23
2023-05-06T03:09:34.972Z,17.48
2023-05-06T03:12:02.500Z,17.35
2023-05-06T03:14:29.496Z,12.38
2023-05-06T03:16:56.761Z,13.98
2023-05-06T03:19:24.246Z,14.27
2023-05-06T03:21:51.310Z,14.32
2023-05-06T03:24:18.385Z,12.65
2023-05-06T03:26:45.620Z,13.55
2023-05-06T03:29:12.736Z,18.67
2023-05-06T03:31:39.889Z,16.58
2023-05-06T03:34:07.407Z,16.23
2023-05-06T03:36:35.012Z,12.65
2023-05-06T03:39:02.068Z,15.48
2023-05-06T03:41:30.084Z,15.75
2023-05-06T03:43:57.189Z,16.55
2023-05-06T03:46:24.396Z,15.05
2023-05-06T03:48:51.653Z,16.45
2023-05-06T03:51:19.176Z,15.55
2023-05-06T03:53:46.608Z,17.73
2023-05-06T03:56:13.894Z,16.25
2023-05-06T03:58:41.043Z,16.23
2023-05-06T04:01:08.030Z,18.98
2023-05-06T04:03:35.138Z,15.98
2023-05-06T04:06:02.328Z,14.18
2023-05-06T04:08:29.560Z,14.25
2023-05-06T04:10:56.662Z,15.88
2023-05-06T04:13:23.706Z,14.10
2023-05-06T04:15:50.896Z,16.30
2023-05-06T04:18:19.372Z,15.40
2023-05-06T04:20:50.570Z,12.60
2023-05-06T04:23:17.774Z,12.43
2023-05-06T04:25:49.560Z,13.60
2023-05-06T04:28:17.794Z,12.85
2023-05-06T04:30:45.844Z,12.02
2023-05-06T04:33:13.562Z,16.90
2023-05-06T04:35:41.267Z,19.70
2023-05-06T04:38:09.486Z,12.38
2023-05-06T04:40:39.476Z,14.02
2023-05-06T04:43:06.936Z,13.77
2023-05-06T04:45:34.871Z,13.35
2023-05-06T04:48:02.007Z,13.55
2023-05-06T04:50:29.276Z,13.35
2023-05-06T04:52:56.608Z,15.02
2023-05-06T04:55:23.887Z,11.50
2023-05-06T04:57:51.247Z,17.10
2023-05-06T05:00:19.384Z,14.77
2023-05-06T05:02:47.115Z,14.23
2023-05-06T05:05:15.904Z,16.10
2023-05-06T05:07:43.303Z,14.73
2023-05-06T05:10:10.812Z,12.93
2023-05-06T05:12:38.448Z,15.68
2023-05-06T05:15:06.211Z,11.65
2023-05-06T05:17:33.274Z,12.95
2023-05-06T05:20:00.470Z,11.75
2023-05-06T05:22:27.504Z,15.40
2023-05-06T05:24:54.630Z,10.27
2023-05-06T05:27:21.780Z,13.93
2023-05-06T05:29:49.135Z,10.60
2023-05-06T05:32:16.837Z,15.15
2023-05-06T05:34:44.111Z,11.98
2023-05-06T05:37:11.700Z,13.13
2023-05-06T05:39:38.870Z,12.88
2023-05-06T05:42:06.232Z,12.98
2023-05-06T05:44:33.544Z,12.25
2023-05-06T05:47:00.791Z,13.05
2023-05-06T05:49:28.026Z,13.55
2023-05-06T05:51:55.014Z,11.02
2023-05-06T05:54:22.168Z,12.18
2023-05-06T05:56:50.544Z,11.75
2023-05-06T05:59:17.625Z,11.30
2023-05-06T06:01:45.208Z,11.75
2023-05-06T06:04:12.412Z,12.20
2023-05-06T06:06:39.507Z,12.98
2023-05-06T06:09:06.613Z,12.75
2023-05-06T06:11:34.086Z,10.43
2023-05-06T06:14:01.171Z,12.77
2023-05-06T06:16:28.260Z,12.10
2023-05-06T06:18:55.452Z,18.38
2023-05-06T06:21:22.558Z,12.63
2023-05-06T06:23:49.687Z,14.68
2023-05-06T06:26:16.869Z,12.27
2023-05-06T06:28:45.012Z,11.75
2023-05-06T06:31:12.679Z,15.07
2023-05-06T06:33:39.662Z,13.43
2023-05-06T06:36:07.214Z,15.73
2023-05-06T06:38:34.280Z,12.27
2023-05-06T06:41:01.384Z,10.05
2023-05-06T06:43:28.456Z,9.88
2023-05-06T06:45:56.458Z,8.20
2023-05-06T06:48:23.959Z,11.60
2023-05-06T06:50:51.018Z,9.70
2023-05-06T06:53:18.283Z,9.02
2023-05-06T06:55:46.062Z,12.05
2023-05-06T06:58:14.501Z,8.18
2023-05-06T07:00:42.715Z,10.73
2023-05-06T07:03:10.187Z,11.85
2023-05-06T07:05:37.589Z,11.00
2023-05-06T07:08:04.854Z,8.30
2023-05-06T07:10:32.280Z,10.38
2023-05-06T07:12:59.675Z,9.80
2023-05-06T07:15:26.605Z,9.70
2023-05-06T07:17:54.134Z,8.93
2023-05-06T07:20:21.477Z,9.82
2023-05-06T07:22:48.497Z,9.98
2023-05-06T07:25:15.761Z,10.60
2023-05-06T07:27:42.824Z,10.43
2023-05-06T07:30:10.372Z,12.07
2023-05-06T07:32:37.635Z,11.52
2023-05-06T07:35:06.061Z,12.63
2023-05-06T07:37:33.689Z,11.82
2023-05-06T07:40:00.945Z,10.35
2023-05-06T07:42:28.354Z,10.23
2023-05-06T07:44:55.714Z,16.33
2023-05-06T07:47:30.503Z,10.90
2023-05-06T07:49:58.005Z,9.68
2023-05-06T07:52:25.524Z,9.68
2023-05-06T07:54:53.324Z,11.13
2023-05-06T07:57:20.434Z,9.57
2023-05-06T07:59:49.183Z,8.68
2023-05-06T08:02:16.588Z,9.70
2023-05-06T08:04:44.782Z,11.30
2023-05-06T08:07:12.488Z,13.57
2023-05-06T08:09:39.751Z,15.02
2023-05-06T08:12:10.411Z,10.65
2023-05-06T08:14:37.898Z,10.38
2023-05-06T08:17:05.111Z,8.88
2023-05-06T08:19:32.306Z,12.10
2023-05-06T08:21:59.324Z,8.77
2023-05-06T08:24:26.999Z,9.55
2023-05-06T08:26:54.179Z,11.10
2023-05-06T08:29:21.333Z,12.13
2023-05-06T08:31:48.748Z,7.93
2023-05-06T08:34:18.694Z,9.30
2023-05-06T08:36:45.840Z,11.20
2023-05-06T08:39:14.829Z,9.13
2023-05-06T08:41:50.726Z,8.40
2023-05-06T08:46:49.872Z,5.78
2023-05-06T08:49:17.166Z,7.55
2023-05-06T08:51:45.144Z,7.25
2023-05-06T08:54:13.415Z,8.20
2023-05-06T08:56:46.008Z,6.43
2023-05-06T08:59:13.980Z,5.57
2023-05-06T09:01:41.644Z,7.05
2023-05-06T09:04:09.352Z,8.23
2023-05-06T09:06:36.774Z,8.20
2023-05-06T09:09:04.136Z,8.18
2023-05-06T09:11:32.051Z,10.40
2023-05-06T09:14:18.200Z,8.20
2023-05-06T09:16:47.693Z,5.93
2023-05-06T09:19:16.803Z,7.88
2023-05-06T09:21:46.781Z,7.25
2023-05-06T09:24:15.467Z,6.95
2023-05-06T09:26:44.205Z,9.35
2023-05-06T09:29:11.647Z,7.43
2023-05-06T09:31:44.040Z,7.82
2023-05-06T09:34:12.192Z,7.07
2023-05-06T09:36:39.671Z,9.77
2023-05-06T09:39:07.078Z,8.10
2023-05-06T09:41:34.204Z,7.13
2023-05-06T09:44:02.059Z,6.03
2023-05-06T09:46:30.014Z,5.20
2023-05-06T09:48:58.479Z,7.40
2023-05-06T09:51:28.123Z,5.40
2023-05-06T09:53:57.853Z,5.78
2023-05-06T09:56:26.235Z,5.70
2023-05-06T09:58:54.697Z,11.35
2023-05-06T10:01:35.207Z,3.47
2023-05-06T10:04:12.966Z,6.35
2023-05-06T10:06:44.536Z,4.72
2023-05-06T10:09:11.694Z,8.73
2023-05-06T10:11:39.613Z,6.10
2023-05-06T10:14:07.678Z,6.45
2023-05-06T10:16:36.499Z,6.90
2023-05-06T10:19:04.946Z,4.82
2023-05-06T10:21:36.239Z,7.10
2023-05-06T10:24:09.662Z,6.10
2023-05-06T10:26:38.828Z,6.07
2023-05-06T10:29:10.074Z,7.97
2023-05-06T10:31:49.892Z,9.35
2023-05-06T10:34:21.360Z,5.20
2023-05-06T10:36:53.944Z,6.60
2023-05-06T10:39:21.775Z,8.05
2023-05-06T10:41:49.577Z,8.23
2023-05-06T10:44:16.617Z,5.05
2023-05-06T10:47:00.932Z,6.88
2023-05-06T10:49:31.821Z,7.10
2023-05-06T10:52:13.845Z,6.47
2023-05-06T10:54:53.646Z,6.35
2023-05-06T10:57:26.966Z,7.63
2023-05-06T10:59:55.982Z,9.45
2023-05-06T11:02:24.112Z,4.72
2023-05-06T11:04:53.315Z,6.63
2023-05-06T11:07:24.286Z,5.70
2023-05-06T11:09:56.610Z,5.68
2023-05-06T11:12:54.017Z,6.10
2023-05-06T11:15:25.840Z,9.90
2023-05-06T11:17:55.229Z,6.13
2023-05-06T11:20:26.800Z,8.52
2023-05-06T11:22:54.486Z,9.18
2023-05-06T11:25:41.990Z,6.63
2023-05-06T11:28:11.741Z,7.65
2023-05-06T11:30:42.434Z,7.25
2023-05-06T11:33:19.405Z,6.75
2023-05-06T11:35:46.898Z,6.55
2023-05-06T11:38:13.867Z,5.28
2023-05-06T11:40:43.986Z,8.60
2023-05-06T11:43:15.272Z,4.50
2023-05-06T11:45:46.814Z,4.18
2023-05-06T11:48:17.964Z,7.15
2023-05-06T11:50:51.148Z,7.35
2023-05-06T11:53:23.583Z,6.55
2023-05-06T11:55:53.935Z,5.75
2023-05-06T11:58:25.630Z,7.95
2023-05-06T12:01:00.700Z,6.30
2023-05-06T12:03:30.561Z,5.53
2023-05-06T12:05:58.498Z,5.75
2023-05-06T12:08:34.193Z,6.07
2023-05-06T12:11:07.423Z,5.65
2023-05-06T12:13:37.192Z,5.75
2023-05-06T12:16:06.103Z,14.60
2023-05-06T12:18:33.711Z,10.13
2023-05-06T12:21:04.394Z,7.03
2023-05-06T12:23:31.766Z,5.78
2023-05-06T12:26:04.646Z,6.55
2023-05-06T12:28:33.191Z,8.00
2023-05-06T12:31:18.178Z,6.03
2023-05-06T12:33:46.473Z,5.82
2023-05-06T12:36:13.797Z,6.97
2023-05-06T12:38:51.700Z,5.32
2023-05-06T12:41:20.208Z,8.30
2023-05-06T12:43:47.943Z,5.60
2023-05-06T12:46:17.056Z,7.93
2023-05-06T12:49:01.052Z,6.22
2023-05-06T12:51:30.850Z,4.40
2023-05-06T12:53:58.147Z,5.03
2023-05-06T12:56:25.464Z,3.80
2023-05-06T12:59:00.570Z,6.05
2023-05-06T13:01:28.089Z,5.70
2023-05-06T13:03:59.529Z,4.35
2023-05-06T13:06:27.707Z,4.80
2023-05-06T13:08:54.721Z,5.38
2023-05-06T13:11:22.514Z,8.57
2023-05-06T13:13:50.250Z,6.03
2023-05-06T13:16:17.661Z,5.93
2023-05-06T13:18:44.905Z,8.15
2023-05-06T13:21:14.262Z,5.30
2023-05-06T13:23:47.012Z,6.47
2023-05-06T13:26:18.723Z,5.63
2023-05-06T13:28:46.366Z,6.32
2023-05-06T13:31:13.687Z,9.70
2023-05-06T13:33:40.994Z,4.78
2023-05-06T13:36:08.708Z,7.15
2023-05-06T13:38:36.032Z,7.00
2023-05-06T13:41:03.417Z,4.95
2023-05-06T13:43:33.238Z,4.30
2023-05-06T13:46:00.812Z,7.97
2023-05-06T13:48:28.010Z,8.52
2023-05-06T13:50:55.368Z,8.38
2023-05-06T13:53:22.636Z,8.93
2023-05-06T13:55:50.084Z,13.40
2023-05-06T13:58:18.017Z,15.23
2023-05-06T14:00:45.422Z,8.48
2023-05-06T14:03:12.941Z,12.73
2023-05-06T14:05:40.413Z,9.95
2023-05-06T14:08:08.426Z,9.20
2023-05-06T14:10:35.585Z,9.73
2023-05-06T14:13:03.946Z,9.30
2023-05-06T14:15:33.586Z,6.38
2023-05-06T14:18:01.324Z,6.68
2023-05-06T14:20:28.556Z,8.60
2023-05-06T14:22:59.082Z,7.82
2023-05-06T14:25:28.177Z,12.25
2023-05-06T14:27:55.680Z,17.98
2023-05-06T14:30:23.617Z,10.45
2023-05-06T14:32:51.017Z,7.80
2023-05-06T14:35:19.315Z,9.80
2023-05-06T14:37:46.695Z,7.50
2023-05-06T14:40:15.156Z,10.25
2023-05-06T14:42:42.407Z,10.02
2023-05-06T14:45:10.544Z,10.18
2023-05-06T14:47:39.001Z,9.20
2023-05-06T14:50:09.407Z,9.02
2023-05-06T14:52:37.989Z,11.30
2023-05-06T14:55:07.241Z,10.23
2023-05-06T14:57:34.713Z,7.55
2023-05-06T15:00:10.417Z,12.43
2023-05-06T15:02:38.531Z,8.25
2023-05-06T15:05:06.947Z,6.10
2023-05-06T15:07:34.288Z,9.10
2023-05-06T15:10:02.668Z,8.18
2023-05-06T15:12:29.872Z,7.93
2023-05-06T15:14:57.278Z,9.35
2023-05-06T15:17:25.046Z,6.82
2023-05-06T15:19:56.663Z,9.02
2023-05-06T15:22:24.584Z,9.68
2023-05-06T15:24:51.942Z,7.72
2023-05-06T15:27:19.298Z,7.93
2023-05-06T15:29:46.450Z,7.93
2023-05-06T15:32:13.549Z,11.65
2023-05-06T15:34:40.929Z,12.32
2023-05-06T15:37:10.542Z,9.05
2023-05-06T15:39:38.220Z,9.48
2023-05-06T15:42:05.769Z,10.80
2023-05-06T15:44:34.258Z,6.25
2023-05-06T15:47:01.562Z,5.57
2023-05-06T15:52:01.049Z,7.10
2023-05-06T15:54:29.012Z,7.47
2023-05-06T15:56:56.921Z,7.65
2023-05-06T15:59:24.212Z,6.65
2023-05-06T16:02:25.661Z,7.03
2023-05-06T16:04:39.064Z,8.07
2023-05-06T16:07:06.376Z,9.30
2023-05-06T16:09:33.953Z,8.60
2023-05-06T16:12:01.732Z,7.15
2023-05-06T16:14:28.985Z,7.95
2023-05-06T16:16:56.593Z,9.35
2023-05-06T16:19:23.749Z,6.35
2023-05-06T16:21:51.307Z,10.70
2023-05-06T16:24:18.822Z,7.28
2023-05-06T16:26:46.001Z,7.07
2023-05-06T16:29:13.281Z,6.10
2023-05-06T16:31:40.685Z,12.55
2023-05-06T16:34:08.008Z,8.73
2023-05-06T16:36:38.229Z,7.28
2023-05-06T16:39:08.452Z,9.95
2023-05-06T16:41:35.775Z,8.88
2023-05-06T16:44:03.594Z,9.38
2023-05-06T16:46:31.112Z,11.15
2023-05-06T16:48:58.517Z,11.32
2023-05-06T16:51:26.175Z,6.47
2023-05-06T16:53:53.461Z,6.85
2023-05-06T16:56:20.900Z,5.95
2023-05-06T16:58:48.207Z,7.97
2023-05-06T17:01:18.235Z,14.18
2023-05-06T17:03:46.196Z,10.05
2023-05-06T17:06:13.914Z,9.88
2023-05-06T17:08:44.387Z,8.88
2023-05-06T17:11:11.661Z,10.90
2023-05-06T17:13:39.065Z,9.88
2023-05-06T17:16:06.741Z,8.93
2023-05-06T17:18:33.715Z,6.43
2023-05-06T17:21:02.224Z,9.40
2023-05-06T17:23:29.370Z,8.65
2023-05-06T17:25:57.663Z,8.48
2023-05-06T17:28:25.215Z,7.82
2023-05-06T17:30:52.786Z,5.93
2023-05-06T17:33:21.029Z,6.80
2023-05-06T17:35:48.226Z,9.05
2023-05-06T17:38:17.013Z,9.57
2023-05-06T17:40:44.296Z,8.13
2023-05-06T17:43:11.681Z,10.57
2023-05-06T17:45:41.092Z,11.32
2023-05-06T17:48:08.342Z,11.88
2023-05-06T17:50:36.329Z,9.07
2023-05-06T17:53:06.614Z,9.25
2023-05-06T17:55:34.475Z,10.55
2023-05-06T17:58:01.677Z,12.85
2023-05-06T18:00:28.977Z,10.95
2023-05-06T18:02:56.725Z,12.93
2023-05-06T18:05:25.950Z,13.20
2023-05-06T18:07:53.275Z,12.07
2023-05-06T18:10:20.624Z,11.82
2023-05-06T18:12:48.284Z,14.23
2023-05-06T18:15:15.724Z,14.25
2023-05-06T18:17:42.896Z,11.68
2023-05-06T18:20:10.540Z,10.88
2023-05-06T18:22:39.208Z,10.45
2023-05-06T18:25:07.515Z,13.07
2023-05-06T18:27:34.817Z,12.93
2023-05-06T18:30:02.422Z,12.88
2023-05-06T18:32:29.773Z,10.75
2023-05-06T18:34:57.095Z,17.98
2023-05-06T18:37:24.345Z,10.68
2023-05-06T18:39:52.385Z,13.43
2023-05-06T18:42:21.138Z,12.00
2023-05-06T18:44:50.605Z,15.63
2023-05-06T18:47:19.671Z,9.93
2023-05-06T18:49:47.040Z,12.85
2023-05-06T18:52:15.512Z,11.55
2023-05-06T18:54:42.617Z,11.63
2023-05-06T18:57:10.609Z,13.63
2023-05-06T18:59:38.009Z,13.13
2023-05-06T19:02:05.867Z,10.73
2023-05-06T19:04:33.814Z,13.18
2023-05-06T19:07:01.505Z,13.57
2023-05-06T19:09:32.991Z,14.07
2023-05-06T19:12:00.203Z,12.00
2023-05-06T19:14:27.950Z,13.65
2023-05-06T19:16:55.186Z,13.45
2023-05-06T19:19:22.468Z,9.88
2023-05-06T19:21:49.690Z,12.68
2023-05-06T19:24:16.993Z,12.55
2023-05-06T19:26:46.274Z,13.43
2023-05-06T19:29:14.827Z,14.18
2023-05-06T19:31:42.215Z,15.25
2023-05-06T19:34:09.402Z,14.82
2023-05-06T19:36:36.685Z,15.40
2023-05-06T19:39:04.057Z,12.50
2023-05-06T19:41:31.212Z,13.25
2023-05-06T19:43:58.360Z,15.10
2023-05-06T19:46:26.217Z,15.70
2023-05-06T19:48:53.502Z,14.73
2023-05-06T19:51:20.608Z,13.57
2023-05-06T19:53:49.654Z,21.27
2023-05-06T19:56:17.333Z,13.30
2023-05-06T19:58:45.394Z,14.43
2023-05-06T20:01:12.795Z,16.90
2023-05-06T20:03:40.437Z,15.05
2023-05-06T20:06:07.982Z,17.08
2023-05-06T20:08:35.558Z,15.85
2023-05-06T20:11:02.955Z,13.70
2023-05-06T20:13:30.287Z,19.90
2023-05-06T20:15:57.557Z,15.55
2023-05-06T20:18:25.208Z,19.77
2023-05-06T20:20:53.889Z,14.85
2023-05-06T20:23:21.303Z,16.17
2023-05-06T20:25:48.501Z,17.83
2023-05-06T20:28:15.658Z,14.38
2023-05-06T20:30:42.935Z,16.27
2023-05-06T20:33:10.093Z,17.13
2023-05-06T20:35:38.537Z,18.75
2023-05-06T20:38:06.674Z,15.20
2023-05-06T20:40:35.909Z,15.82
2023-05-06T20:43:03.149Z,17.42
2023-05-06T20:45:31.662Z,17.50
2023-05-06T20:47:59.066Z,17.50
2023-05-06T20:50:26.516Z,16.42
2023-05-06T20:52:54.666Z,18.40
2023-05-06T20:55:23.593Z,15.30
2023-05-06T20:57:51.112Z,16.70
2023-05-06T21:00:19.368Z,15.95
2023-05-06T21:02:46.687Z,17.08
2023-05-06T21:05:14.087Z,13.40
2023-05-06T21:07:41.763Z,19.20
2023-05-06T21:10:11.220Z,15.30
2023-05-06T21:12:38.878Z,18.48
2023-05-06T21:15:06.590Z,15.95
2023-05-06T21:17:33.898Z,20.85
2023-05-06T21:20:02.364Z,18.30
2023-05-06T21:22:30.853Z,18.73
2023-05-06T21:24:57.927Z,16.00
2023-05-06T21:27:25.084Z,15.00
2023-05-06T21:29:52.244Z,16.75
2023-05-06T21:32:19.439Z,16.27
2023-05-06T21:34:46.649Z,20.30
2023-05-06T21:37:13.747Z,16.65
2023-05-06T21:39:40.911Z,16.45
2023-05-06T21:42:08.066Z,17.30
2023-05-06T21:44:35.719Z,17.70
2023-05-06T21:47:02.839Z,15.93
2023-05-06T21:49:29.844Z,18.40
2023-05-06T21:51:57.094Z,18.00
2023-05-06T21:54:24.879Z,16.63
2023-05-06T21:56:51.919Z,20.48
2023-05-06T21:59:20.052Z,21.92
2023-05-06T22:01:47.314Z,19.77
2023-05-06T22:04:16.861Z,16.00
2023-05-06T22:06:44.368Z,16.73
2023-05-06T22:09:17.073Z,13.30
2023-05-06T22:11:44.224Z,17.60
2023-05-06T22:14:11.834Z,21.90
2023-05-06T22:16:39.671Z,16.65
2023-05-06T22:19:07.813Z,17.27
2023-05-06T22:21:35.714Z,18.80
2023-05-06T22:24:02.816Z,19.02
2023-05-06T22:26:30.457Z,18.05
2023-05-06T22:28:57.655Z,19.33
2023-05-06T22:31:25.386Z,17.05
2023-05-06T22:33:55.736Z,17.20
2023-05-06T22:36:22.996Z,17.98
2023-05-06T22:38:50.443Z,20.48
2023-05-06T22:41:18.731Z,19.88
2023-05-06T22:43:46.089Z,15.15
2023-05-06T22:46:13.516Z,16.52
2023-05-06T22:48:40.936Z,22.58
2023-05-06T22:51:09.598Z,20.08
2023-05-06T22:53:37.713Z,22.90
2023-05-06T22:56:05.097Z,17.15
2023-05-06T22:58:32.350Z,20.90
2023-05-06T23:00:59.756Z,18.48
2023-05-06T23:03:27.186Z,17.27
2023-05-06T23:05:54.783Z,19.13
2023-05-06T23:08:21.841Z,18.23
2023-05-06T23:10:48.969Z,16.70
2023-05-06T23:13:16.282Z,17.23
2023-05-06T23:15:43.604Z,17.77
2023-05-06T23:18:10.985Z,15.95
2023-05-06T23:20:38.551Z,16.83
2023-05-06T23:23:10.783Z,20.88
2023-05-06T23:25:38.311Z,16.02
2023-05-06T23:28:05.947Z,18.52
2023-05-06T23:30:33.172Z,15.77
2023-05-06T23:33:00.842Z,15.25
2023-05-06T23:35:28.157Z,18.52
2023-05-06T23:37:55.276Z,18.67
2023-05-06T23:40:22.646Z,17.63
2023-05-06T23:42:49.801Z,18.20
2023-05-06T23:45:17.148Z,16.27
2023-05-06T23:47:44.183Z,18.05
2023-05-06T23:50:11.964Z,16.73
2023-05-06T23:52:39.857Z,19.23
2023-05-06T23:55:07.357Z,18.67
2023-05-06T23:57:34.596Z,15.77
